Time;durP1;ratioP1;P1;durP2;ratioP2;P2;SDS_P1;SDS_P2;PMS_P1;PMS_P2;Temp;Humidity;BMP_temperature;BMP_pressure;BME280_temperature;BME280_humidity;BME280_pressure;Samples;Min_cycle;Max_cycle;Signal;HPM_P1;HPM_P2
2023/01/13 00:01:22;;;;;;;8.77;2.93;;;;;;;;;;5073968;28;20203;-86
2023/01/13 00:03:51;;;;;;;16.80;5.50;;;;;;;;;;5073691;28;20210;-85
2023/01/13 00:06:21;;;;;;;12.50;2.47;;;;;;;;;;5075017;28;20227;-85
2023/01/13 00:08:50;;;;;;;17.57;5.50;;;;;;;;;;5073748;28;20214;-86
2023/01/13 00:11:19;;;;;;;20.20;6.33;;;;;;;;;;5073709;28;20202;-86
2023/01/13 00:13:47;;;;;;;13.23;4.73;;;;;;;;;;5073235;28;20238;-86
2023/01/13 00:16:17;;;;;;;13.20;5.47;;;;;;;;;;5073898;28;20237;-86
2023/01/13 00:18:46;;;;;;;13.20;5.00;;;;;;;;;;5074684;28;20198;-86
2023/01/13 00:21:15;;;;;;;19.53;4.47;;;;;;;;;;5073292;28;20392;-85
2023/01/13 00:23:45;;;;;;;14.93;3.70;;;;;;;;;;5074657;28;20215;-86
2023/01/13 00:26:14;;;;;;;14.87;7.07;;;;;;;;;;5074461;28;20222;-86
2023/01/13 00:28:42;;;;;;;11.03;3.57;;;;;;;;;;5073524;28;20206;-86
2023/01/13 00:31:12;;;;;;;13.03;5.97;;;;;;;;;;5073250;28;20206;-85
2023/01/13 00:33:41;;;;;;;6.23;4.03;;;;;;;;;;5073538;28;20199;-85
2023/01/13 00:36:11;;;;;;;29.60;5.90;;;;;;;;;;5073354;28;20199;-85
2023/01/13 00:38:41;;;;;;;10.47;4.53;;;;;;;;;;5073341;28;20204;-85
2023/01/13 00:41:12;;;;;;;15.00;4.47;;;;;;;;;;5074242;28;20204;-86
2023/01/13 00:43:39;;;;;;;14.30;4.27;;;;;;;;;;5073075;28;20215;-85
2023/01/13 00:46:09;;;;;;;15.07;6.50;;;;;;;;;;5074148;28;20255;-86
2023/01/13 00:48:37;;;;;;;19.27;4.97;;;;;;;;;;5074292;28;20207;-85
2023/01/13 00:51:06;;;;;;;24.97;7.27;;;;;;;;;;5072886;28;20233;-85
2023/01/13 00:53:36;;;;;;;19.87;4.80;;;;;;;;;;5072992;28;20204;-86
2023/01/13 00:56:05;;;;;;;16.17;6.10;;;;;;;;;;5073134;28;20248;-86
2023/01/13 00:58:36;;;;;;;20.63;3.67;;;;;;;;;;5074318;28;20239;-85
2023/01/13 01:01:04;;;;;;;11.13;5.03;;;;;;;;;;5072893;28;20248;-85
2023/01/13 01:03:33;;;;;;;11.90;4.97;;;;;;;;;;5073548;28;20222;-85
2023/01/13 01:06:04;;;;;;;16.07;5.47;;;;;;;;;;5072907;28;20220;-86
2023/01/13 01:08:33;;;;;;;16.63;5.37;;;;;;;;;;5072833;28;20197;-86
2023/01/13 01:11:02;;;;;;;18.97;5.47;;;;;;;;;;5072784;28;20200;-86
2023/01/13 01:13:31;;;;;;;16.73;5.27;;;;;;;;;;5073707;28;20238;-86
2023/01/13 01:16:05;;;;;;;14.83;3.63;;;;;;;;;;5073750;28;20198;-86
2023/01/13 01:18:34;;;;;;;16.30;4.43;;;;;;;;;;5073177;28;20289;-86
2023/01/13 01:21:02;;;;;;;8.10;3.27;;;;;;;;;;5072729;28;20230;-86
2023/01/13 01:23:31;;;;;;;22.87;6.13;;;;;;;;;;5072726;28;20309;-86
2023/01/13 01:26:01;;;;;;;17.97;6.33;;;;;;;;;;5073678;28;20234;-86
2023/01/13 01:28:29;;;;;;;21.60;6.07;;;;;;;;;;5072832;28;20226;-86
2023/01/13 01:30:58;;;;;;;22.10;6.83;;;;;;;;;;5072702;28;20224;-86
2023/01/13 01:33:28;;;;;;;26.77;5.53;;;;;;;;;;5072599;28;20194;-86
2023/01/13 01:35:57;;;;;;;15.00;4.70;;;;;;;;;;5072810;28;20202;-85
2023/01/13 01:38:25;;;;;;;13.90;5.30;;;;;;;;;;5072413;28;20233;-86
2023/01/13 01:40:53;;;;;;;12.93;4.47;;;;;;;;;;5072620;28;20198;-86
2023/01/13 01:46:08;;;;;;;9.03;3.57;;;;;;;;;;5072502;28;20225;-85
2023/01/13 01:48:41;;;;;;;18.33;4.77;;;;;;;;;;5073436;28;20290;-86
2023/01/13 01:51:12;;;;;;;12.67;3.80;;;;;;;;;;5073420;28;20206;-85
2023/01/13 01:53:41;;;;;;;14.10;3.67;;;;;;;;;;5073631;28;20199;-85
2023/01/13 01:56:11;;;;;;;18.50;6.00;;;;;;;;;;5073515;28;20207;-86
2023/01/13 01:58:44;;;;;;;31.17;7.27;;;;;;;;;;5073271;28;20249;-85
2023/01/13 02:01:12;;;;;;;14.37;5.33;;;;;;;;;;5073272;28;20286;-85
2023/01/13 02:03:47;;;;;;;18.63;5.13;;;;;;;;;;5072319;28;20298;-86
2023/01/13 02:06:15;;;;;;;22.37;6.00;;;;;;;;;;5072129;28;20306;-86
2023/01/13 02:08:43;;;;;;;19.27;5.20;;;;;;;;;;5072534;28;20199;-86
2023/01/13 02:14:09;;;;;;;21.67;5.47;;;;;;;;;;5071139;28;20227;-85
2023/01/13 02:16:39;;;;;;;18.90;5.13;;;;;;;;;;5075367;28;20294;-86
2023/01/13 02:19:13;;;;;;;9.73;3.10;;;;;;;;;;5075864;28;20208;-86
2023/01/13 02:22:09;;;;;;;13.80;4.63;;;;;;;;;;5076782;28;20222;-86
2023/01/13 02:24:55;;;;;;;16.90;5.73;;;;;;;;;;5030211;28;20321;-86
2023/01/13 02:27:45;;;;;;;18.40;5.63;;;;;;;;;;5075675;28;20198;-85
2023/01/13 02:33:09;;;;;;;17.43;4.40;;;;;;;;;;5075886;28;20195;-85
2023/01/13 02:35:39;;;;;;;10.90;5.03;;;;;;;;;;5075614;28;20263;-86
2023/01/13 02:38:09;;;;;;;18.37;3.67;;;;;;;;;;5076847;28;20318;-86
2023/01/13 02:40:39;;;;;;;35.77;5.40;;;;;;;;;;5075542;28;20211;-86
2023/01/13 02:46:01;;;;;;;20.43;6.07;;;;;;;;;;5075314;28;20214;-86
2023/01/13 02:48:30;;;;;;;12.90;4.03;;;;;;;;;;5075691;28;20200;-85
2023/01/13 02:51:00;;;;;;;11.07;4.63;;;;;;;;;;5075461;28;20226;-85
2023/01/13 02:53:33;;;;;;;18.60;5.83;;;;;;;;;;5075167;28;20214;-85
2023/01/13 02:56:03;;;;;;;26.23;7.10;;;;;;;;;;5075219;28;20199;-86
2023/01/13 02:58:32;;;;;;;19.33;6.23;;;;;;;;;;5075503;28;20302;-86
2023/01/13 03:01:02;;;;;;;31.27;8.87;;;;;;;;;;5074861;28;20226;-86
2023/01/13 03:03:30;;;;;;;10.73;3.47;;;;;;;;;;5074761;28;20207;-85
2023/01/13 03:06:09;;;;;;;13.60;3.80;;;;;;;;;;5075862;28;20223;-85
2023/01/13 03:08:46;;;;;;;10.87;3.57;;;;;;;;;;5074706;28;20260;-86
2023/01/13 03:11:15;;;;;;;10.17;5.00;;;;;;;;;;5076040;28;20202;-86
2023/01/13 03:13:49;;;;;;;9.80;3.87;;;;;;;;;;5075783;28;20295;-85
2023/01/13 03:16:23;;;;;;;13.60;4.37;;;;;;;;;;5075606;28;20197;-86
2023/01/13 03:18:56;;;;;;;17.07;6.33;;;;;;;;;;5076102;28;20191;-86
2023/01/13 03:21:26;;;;;;;17.17;5.17;;;;;;;;;;5074547;28;20216;-86
2023/01/13 03:23:58;;;;;;;16.77;5.17;;;;;;;;;;5075757;28;20199;-86
2023/01/13 03:26:29;;;;;;;17.87;4.50;;;;;;;;;;5074608;28;20210;-86
2023/01/13 03:29:00;;;;;;;14.73;3.53;;;;;;;;;;5075718;28;20199;-86
2023/01/13 03:31:32;;;;;;;10.37;3.60;;;;;;;;;;5075987;28;20204;-86
2023/01/13 03:34:02;;;;;;;18.77;4.53;;;;;;;;;;5074388;28;20202;-86
2023/01/13 03:36:31;;;;;;;9.37;3.80;;;;;;;;;;5074697;28;20190;-86
2023/01/13 03:39:01;;;;;;;10.70;2.97;;;;;;;;;;5075617;28;20203;-86
2023/01/13 03:41:33;;;;;;;12.73;4.17;;;;;;;;;;5074265;28;20206;-86
2023/01/13 03:44:22;;;;;;;16.13;3.53;;;;;;;;;;5074292;28;20209;-86
2023/01/13 03:46:55;;;;;;;11.83;4.00;;;;;;;;;;5074121;28;20203;-86
2023/01/13 03:49:24;;;;;;;11.03;4.27;;;;;;;;;;5075393;28;20202;-86
2023/01/13 03:51:55;;;;;;;14.90;4.63;;;;;;;;;;5074081;28;20256;-85
2023/01/13 03:54:26;;;;;;;9.17;4.13;;;;;;;;;;5074259;28;20230;-86
2023/01/13 03:56:56;;;;;;;18.57;4.23;;;;;;;;;;5074891;28;20212;-86
2023/01/13 03:59:27;;;;;;;12.07;5.53;;;;;;;;;;5073888;28;20194;-86
2023/01/13 04:02:02;;;;;;;21.93;3.93;;;;;;;;;;5074039;28;20203;-86
2023/01/13 04:04:32;;;;;;;10.03;3.63;;;;;;;;;;5074168;28;20220;-86
2023/01/13 04:07:07;;;;;;;16.20;2.27;;;;;;;;;;5073775;28;20223;-86
2023/01/13 04:09:39;;;;;;;17.53;4.53;;;;;;;;;;5073570;28;20201;-86
2023/01/13 04:12:11;;;;;;;16.77;5.07;;;;;;;;;;5074523;28;20251;-86
2023/01/13 04:14:40;;;;;;;10.27;3.17;;;;;;;;;;5073270;28;20336;-86
2023/01/13 04:17:10;;;;;;;11.40;4.63;;;;;;;;;;5074584;28;20256;-86
2023/01/13 04:19:38;;;;;;;14.20;2.57;;;;;;;;;;5073417;28;20195;-85
2023/01/13 04:22:07;;;;;;;11.20;3.43;;;;;;;;;;5074432;28;20234;-85
2023/01/13 04:24:36;;;;;;;10.40;4.10;;;;;;;;;;5073396;28;20272;-86
2023/01/13 04:27:05;;;;;;;10.13;3.70;;;;;;;;;;5073505;28;20294;-86
2023/01/13 04:29:33;;;;;;;15.03;4.80;;;;;;;;;;5073293;28;20205;-86
2023/01/13 04:32:01;;;;;;;10.80;2.17;;;;;;;;;;5074258;28;20203;-86
2023/01/13 04:34:31;;;;;;;9.27;3.87;;;;;;;;;;5073640;28;20259;-86
2023/01/13 04:36:59;;;;;;;10.57;4.67;;;;;;;;;;5074087;28;20257;-85
2023/01/13 04:39:28;;;;;;;14.77;4.23;;;;;;;;;;5072785;28;20203;-86
2023/01/13 04:42:00;;;;;;;17.57;4.47;;;;;;;;;;5073385;28;20205;-86
2023/01/13 04:44:29;;;;;;;14.10;5.57;;;;;;;;;;5073258;28;20204;-86
2023/01/13 04:46:59;;;;;;;18.30;4.93;;;;;;;;;;5074016;28;20305;-86
2023/01/13 04:49:27;;;;;;;12.00;4.10;;;;;;;;;;5073317;28;20297;-86
2023/01/13 04:51:57;;;;;;;9.03;2.83;;;;;;;;;;5072973;28;20202;-86
2023/01/13 04:54:25;;;;;;;13.80;5.80;;;;;;;;;;5073305;28;20252;-86
2023/01/13 04:56:53;;;;;;;7.87;3.13;;;;;;;;;;5074257;28;20244;-86
2023/01/13 04:59:22;;;;;;;6.17;3.60;;;;;;;;;;5072725;28;20219;-86
2023/01/13 05:01:50;;;;;;;11.37;3.17;;;;;;;;;;5074083;28;20242;-85
2023/01/13 05:04:19;;;;;;;14.80;6.83;;;;;;;;;;5072827;28;20214;-86
2023/01/13 05:06:47;;;;;;;22.37;4.07;;;;;;;;;;5072566;28;20224;-86
2023/01/13 05:09:17;;;;;;;18.43;4.33;;;;;;;;;;5072808;28;20195;-85
2023/01/13 05:17:19;;;;;;;21.67;4.30;;;;;;;;;;5072541;28;20297;-86
2023/01/13 05:19:47;;;;;;;15.90;4.50;;;;;;;;;;5072913;28;20223;-86
2023/01/13 05:27:48;;;;;;;10.17;4.33;;;;;;;;;;5072826;28;20194;-86
2023/01/13 05:30:17;;;;;;;14.93;5.90;;;;;;;;;;5072806;28;20266;-86
2023/01/13 05:32:45;;;;;;;12.37;3.63;;;;;;;;;;5072450;28;20203;-86
2023/01/13 05:35:14;;;;;;;12.50;5.53;;;;;;;;;;5072881;28;20199;-86
2023/01/13 05:37:43;;;;;;;9.20;3.20;;;;;;;;;;5072768;28;20201;-86
2023/01/13 05:43:20;;;;;;;8.60;2.70;;;;;;;;;;5072795;28;20229;-86
2023/01/13 05:45:49;;;;;;;16.70;4.07;;;;;;;;;;5073432;28;20206;-86
2023/01/13 05:48:18;;;;;;;15.53;3.57;;;;;;;;;;5072265;28;20197;-85
2023/01/13 05:50:48;;;;;;;14.70;5.33;;;;;;;;;;5076365;28;20210;-86
2023/01/13 05:53:16;;;;;;;13.07;5.77;;;;;;;;;;5076539;28;20293;-86
2023/01/13 05:55:46;;;;;;;8.10;4.00;;;;;;;;;;5077498;28;20214;-86
2023/01/13 05:58:15;;;;;;;17.57;5.47;;;;;;;;;;5076173;28;20204;-86
2023/01/13 06:00:43;;;;;;;17.77;5.73;;;;;;;;;;5076223;28;20242;-86
2023/01/13 06:03:12;;;;;;;13.47;3.33;;;;;;;;;;5075972;28;20260;-86
2023/01/13 06:05:41;;;;;;;25.50;5.93;;;;;;;;;;5076171;28;20219;-86
2023/01/13 06:08:10;;;;;;;20.60;6.03;;;;;;;;;;5075877;28;20191;-86
2023/01/13 06:10:38;;;;;;;16.77;4.83;;;;;;;;;;5077512;28;20190;-86
2023/01/13 06:13:08;;;;;;;17.33;4.40;;;;;;;;;;5075879;28;20264;-86
2023/01/13 06:15:36;;;;;;;12.90;4.60;;;;;;;;;;5076101;28;20229;-86
2023/01/13 06:18:05;;;;;;;20.57;5.33;;;;;;;;;;5076023;28;20195;-86
2023/01/13 06:20:33;;;;;;;11.70;3.50;;;;;;;;;;5076833;28;20202;-86
2023/01/13 06:23:01;;;;;;;10.07;4.07;;;;;;;;;;5075856;28;20230;-86
2023/01/13 06:25:35;;;;;;;17.13;5.50;;;;;;;;;;5075949;28;20209;-86
2023/01/13 06:28:04;;;;;;;13.30;5.07;;;;;;;;;;5075826;28;20276;-86
2023/01/13 06:30:37;;;;;;;17.60;4.97;;;;;;;;;;5075448;28;20301;-86
2023/01/13 06:33:07;;;;;;;16.57;5.40;;;;;;;;;;5075401;28;20203;-87
2023/01/13 06:35:37;;;;;;;6.93;5.10;;;;;;;;;;5075800;28;20198;-87
2023/01/13 06:38:08;;;;;;;19.73;5.33;;;;;;;;;;5075480;28;20227;-87
2023/01/13 06:40:36;;;;;;;13.27;4.30;;;;;;;;;;5075587;28;20300;-87
2023/01/13 06:43:15;;;;;;;17.50;4.03;;;;;;;;;;5075507;28;20230;-86
2023/01/13 06:45:48;;;;;;;17.00;4.67;;;;;;;;;;5076545;28;20192;-87
2023/01/13 06:48:17;;;;;;;13.97;5.30;;;;;;;;;;5074884;28;20225;-87
2023/01/13 06:50:45;;;;;;;16.73;4.53;;;;;;;;;;5076492;28;20194;-87
2023/01/13 06:53:14;;;;;;;12.00;4.67;;;;;;;;;;5074967;28;20203;-86
2023/01/13 06:55:42;;;;;;;12.93;4.77;;;;;;;;;;5075224;28;20241;-87
2023/01/13 06:58:10;;;;;;;13.80;4.23;;;;;;;;;;5075372;28;20332;-86
2023/01/13 07:00:39;;;;;;;14.30;4.90;;;;;;;;;;5074511;28;20226;-85
2023/01/13 07:03:12;;;;;;;20.90;5.90;;;;;;;;;;5076191;28;20206;-86
2023/01/13 07:05:42;;;;;;;11.80;5.03;;;;;;;;;;5074868;28;20272;-86
2023/01/13 07:08:10;;;;;;;16.10;4.70;;;;;;;;;;5075135;28;20226;-86
2023/01/13 07:10:39;;;;;;;13.43;5.53;;;;;;;;;;5074632;28;20256;-86
2023/01/13 07:15:54;;;;;;;13.23;4.20;;;;;;;;;;5074716;28;20199;-86
2023/01/13 07:18:26;;;;;;;37.87;5.20;;;;;;;;;;5074936;28;20193;-86
2023/01/13 07:20:58;;;;;;;22.77;5.23;;;;;;;;;;5075692;28;20198;-85
2023/01/13 07:23:28;;;;;;;11.67;4.00;;;;;;;;;;5075871;28;20206;-86
2023/01/13 07:25:57;;;;;;;14.10;3.87;;;;;;;;;;5075381;28;20204;-86
2023/01/13 07:28:25;;;;;;;21.50;5.33;;;;;;;;;;5075973;28;20296;-86
2023/01/13 07:30:53;;;;;;;12.73;4.77;;;;;;;;;;5075672;28;20320;-87
2023/01/13 07:33:22;;;;;;;8.40;3.47;;;;;;;;;;5074366;28;20198;-86
2023/01/13 07:35:56;;;;;;;14.57;6.20;;;;;;;;;;5074494;28;20214;-87
2023/01/13 07:38:25;;;;;;;8.30;3.30;;;;;;;;;;5075207;28;20199;-86
2023/01/13 07:40:53;;;;;;;22.13;5.20;;;;;;;;;;5075534;28;20213;-87
2023/01/13 07:43:33;;;;;;;21.73;5.30;;;;;;;;;;5074277;28;20203;-87
2023/01/13 07:46:03;;;;;;;14.30;5.43;;;;;;;;;;5074212;28;20200;-87
2023/01/13 07:48:32;;;;;;;10.03;3.20;;;;;;;;;;5074117;28;20315;-86
2023/01/13 07:51:03;;;;;;;22.67;6.60;;;;;;;;;;5074043;28;20206;-86
2023/01/13 07:53:32;;;;;;;13.40;4.53;;;;;;;;;;5073832;28;20198;-86
2023/01/13 07:56:01;;;;;;;14.03;5.17;;;;;;;;;;5074124;28;20203;-87
2023/01/13 07:58:30;;;;;;;17.00;4.67;;;;;;;;;;5074033;28;20197;-87
2023/01/13 08:00:58;;;;;;;15.87;5.60;;;;;;;;;;5073942;28;20196;-87
2023/01/13 08:03:27;;;;;;;15.47;4.07;;;;;;;;;;5074198;28;20205;-87
2023/01/13 08:05:55;;;;;;;19.27;7.23;;;;;;;;;;5073460;28;20237;-86
2023/01/13 08:08:25;;;;;;;9.33;4.50;;;;;;;;;;5074630;28;20216;-87
2023/01/13 08:10:53;;;;;;;9.87;2.97;;;;;;;;;;5073604;28;20198;-86
2023/01/13 08:13:22;;;;;;;18.27;5.33;;;;;;;;;;5072862;28;20244;-86
2023/01/13 08:15:51;;;;;;;18.00;5.87;;;;;;;;;;5073666;28;20245;-86
2023/01/13 08:18:21;;;;;;;9.13;2.83;;;;;;;;;;5074906;28;20194;-86
2023/01/13 08:20:51;;;;;;;16.43;6.33;;;;;;;;;;5073232;28;20213;-86
2023/01/13 08:23:19;;;;;;;17.00;4.53;;;;;;;;;;5073308;28;20195;-87
2023/01/13 08:25:49;;;;;;;15.30;5.17;;;;;;;;;;5073400;28;20196;-87
2023/01/13 08:28:18;;;;;;;12.67;4.27;;;;;;;;;;5074295;28;20208;-85
2023/01/13 08:30:47;;;;;;;20.63;5.43;;;;;;;;;;5074484;28;20221;-87
2023/01/13 08:33:16;;;;;;;17.97;5.60;;;;;;;;;;5073184;28;20202;-86
2023/01/13 08:35:44;;;;;;;15.50;4.93;;;;;;;;;;5074561;28;20203;-87
2023/01/13 08:38:12;;;;;;;13.47;3.63;;;;;;;;;;5073156;28;20294;-87
2023/01/13 08:40:41;;;;;;;20.80;6.03;;;;;;;;;;5072988;28;20209;-86
2023/01/13 08:43:11;;;;;;;12.70;3.67;;;;;;;;;;5073099;28;20221;-87
2023/01/13 08:45:39;;;;;;;8.70;4.53;;;;;;;;;;5072873;28;20199;-87
2023/01/13 08:48:11;;;;;;;10.07;4.03;;;;;;;;;;5070092;28;20239;-86
2023/01/13 08:50:39;;;;;;;16.77;5.27;;;;;;;;;;5077463;28;20198;-87
2023/01/13 08:53:07;;;;;;;8.43;3.80;;;;;;;;;;5084629;28;20198;-86
2023/01/13 08:55:36;;;;;;;12.90;4.80;;;;;;;;;;5078198;28;20207;-86
2023/01/13 08:58:04;;;;;;;11.67;4.43;;;;;;;;;;5081848;28;20259;-86
2023/01/13 09:00:45;;;;;;;20.70;5.13;;;;;;;;;;5073943;28;20210;-85
2023/01/13 09:03:14;;;;;;;10.17;3.60;;;;;;;;;;5075820;28;20247;-85
2023/01/13 09:05:44;;;;;;;6.23;2.57;;;;;;;;;;5082844;28;20222;-88
2023/01/13 09:08:19;;;;;;;5.47;4.30;;;;;;;;;;5071627;28;20265;-88
2023/01/13 09:10:47;;;;;;;12.83;4.13;;;;;;;;;;5071922;28;20214;-88
2023/01/13 09:13:15;;;;;;;19.53;5.43;;;;;;;;;;5074299;28;20269;-88
2023/01/13 09:15:46;;;;;;;8.23;3.20;;;;;;;;;;5066941;28;20210;-86
2023/01/13 09:18:16;;;;;;;10.20;4.60;;;;;;;;;;5087827;28;20221;-86
2023/01/13 09:20:45;;;;;;;8.87;4.30;;;;;;;;;;5074546;28;20298;-85
2023/01/13 09:23:13;;;;;;;16.00;4.13;;;;;;;;;;5075890;28;20216;-86
2023/01/13 09:25:42;;;;;;;16.33;4.63;;;;;;;;;;5071512;28;20256;-87
2023/01/13 09:28:11;;;;;;;10.13;2.67;;;;;;;;;;5077811;28;20217;-87
2023/01/13 09:30:39;;;;;;;7.67;3.00;;;;;;;;;;5074638;28;20194;-86
2023/01/13 09:36:01;;;;;;;12.93;3.97;;;;;;;;;;5086332;28;20638;-86
2023/01/13 09:38:32;;;;;;;18.40;4.93;;;;;;;;;;5073461;28;20190;-84
2023/01/13 09:43:52;;;;;;;14.10;3.80;;;;;;;;;;5069489;28;20203;-85
2023/01/13 09:43:53;;;;;;;8.47;3.27;;;;;;;;;;5071197;28;20206;-84
2023/01/13 09:46:47;;;;;;;17.43;4.63;;;;;;;;;;5066884;28;20202;-83
2023/01/13 09:49:23;;;;;;;15.73;4.60;;;;;;;;;;5070923;28;20229;-85
2023/01/13 09:52:04;;;;;;;14.03;5.23;;;;;;;;;;5073452;28;20204;-84
2023/01/13 09:54:35;;;;;;;17.77;3.13;;;;;;;;;;5072073;28;20306;-84
2023/01/13 09:57:09;;;;;;;10.83;3.73;;;;;;;;;;5068985;28;20203;-84
2023/01/13 09:59:40;;;;;;;10.77;4.07;;;;;;;;;;5074172;28;20199;-84
2023/01/13 10:02:17;;;;;;;12.87;4.23;;;;;;;;;;5075593;28;20208;-84
2023/01/13 10:05:02;;;;;;;8.17;2.63;;;;;;;;;;5073397;28;20214;-82
2023/01/13 10:07:32;;;;;;;11.90;3.73;;;;;;;;;;5072177;28;20210;-84
2023/01/13 10:10:02;;;;;;;10.00;3.70;;;;;;;;;;5071570;28;20253;-82
2023/01/13 10:15:21;;;;;;;35.73;4.53;;;;;;;;;;5070393;28;20216;-85
2023/01/13 10:17:55;;;;;;;8.33;3.03;;;;;;;;;;5067347;28;20203;-83
2023/01/13 10:20:27;;;;;;;7.53;2.67;;;;;;;;;;5069689;28;20215;-85
2023/01/13 10:23:01;;;;;;;6.30;2.60;;;;;;;;;;5076350;28;20215;-83
2023/01/13 10:25:42;;;;;;;6.70;3.40;;;;;;;;;;5065415;28;20211;-82
2023/01/13 10:28:12;;;;;;;16.10;3.43;;;;;;;;;;5068733;28;20216;-82
2023/01/13 10:30:41;;;;;;;14.73;5.93;;;;;;;;;;5074612;28;20207;-84
2023/01/13 10:33:11;;;;;;;9.27;4.37;;;;;;;;;;5067660;28;20203;-83
2023/01/13 10:35:52;;;;;;;11.87;3.40;;;;;;;;;;5078781;28;20293;-83
2023/01/13 10:38:21;;;;;;;14.63;4.63;;;;;;;;;;5073840;28;20207;-85
2023/01/13 10:40:51;;;;;;;20.17;3.37;;;;;;;;;;5078558;28;20212;-82
2023/01/13 10:43:20;;;;;;;7.53;2.83;;;;;;;;;;5068556;28;20203;-83
2023/01/13 10:45:57;;;;;;;14.60;3.90;;;;;;;;;;5074855;28;20210;-82
2023/01/13 10:48:33;;;;;;;7.93;3.00;;;;;;;;;;5073686;28;20222;-82
2023/01/13 10:51:12;;;;;;;9.97;3.30;;;;;;;;;;5075573;28;20198;-82
2023/01/13 10:53:50;;;;;;;12.50;3.30;;;;;;;;;;5079450;28;20201;-82
2023/01/13 10:56:20;;;;;;;8.73;3.10;;;;;;;;;;5095539;28;20222;-83
2023/01/13 10:58:48;;;;;;;9.27;3.43;;;;;;;;;;5075883;28;20215;-82
2023/01/13 11:01:20;;;;;;;13.00;4.20;;;;;;;;;;5083546;28;20229;-82
2023/01/13 11:03:49;;;;;;;10.93;3.57;;;;;;;;;;5080562;28;20231;-83
2023/01/13 11:06:23;;;;;;;7.33;2.47;;;;;;;;;;5075824;28;20220;-82
2023/01/13 11:08:54;;;;;;;13.57;3.53;;;;;;;;;;5085507;28;20219;-82
2023/01/13 11:11:27;;;;;;;18.37;4.40;;;;;;;;;;5079960;28;20202;-83
2023/01/13 11:16:53;;;;;;;9.23;3.87;;;;;;;;;;5035702;28;20242;-82
2023/01/13 11:19:23;;;;;;;7.00;3.43;;;;;;;;;;5076681;28;20201;-82
2023/01/13 11:21:57;;;;;;;11.57;3.57;;;;;;;;;;5078359;28;20211;-82
2023/01/13 11:24:29;;;;;;;5.67;2.57;;;;;;;;;;5079768;28;20204;-83
2023/01/13 11:26:59;;;;;;;7.87;2.83;;;;;;;;;;5077648;28;20206;-83
2023/01/13 11:29:30;;;;;;;11.17;3.33;;;;;;;;;;5080222;28;20219;-83
2023/01/13 11:32:04;;;;;;;9.47;4.53;;;;;;;;;;5083003;28;20198;-82
2023/01/13 11:34:35;;;;;;;11.03;3.50;;;;;;;;;;5090374;28;20253;-82
2023/01/13 11:37:10;;;;;;;6.43;3.00;;;;;;;;;;5085564;28;20199;-82
2023/01/13 11:39:45;;;;;;;5.87;3.20;;;;;;;;;;5082443;28;20203;-83
2023/01/13 11:42:21;;;;;;;11.20;3.37;;;;;;;;;;5079565;28;20210;-82
2023/01/13 11:44:51;;;;;;;6.43;3.20;;;;;;;;;;5084089;28;20202;-82
2023/01/13 11:47:22;;;;;;;7.90;3.47;;;;;;;;;;5074102;28;20200;-82
2023/01/13 11:49:50;;;;;;;6.23;2.53;;;;;;;;;;5077211;28;20296;-82
2023/01/13 11:52:22;;;;;;;6.73;2.97;;;;;;;;;;5079604;28;20214;-82
2023/01/13 11:54:58;;;;;;;1.87;1.33;;;;;;;;;;5081323;28;20210;-82
2023/01/13 11:57:57;;;;;;;11.63;4.10;;;;;;;;;;5083517;28;20255;-82
2023/01/13 12:00:30;;;;;;;9.87;3.20;;;;;;;;;;5018274;28;20214;-81
2023/01/13 12:03:09;;;;;;;13.73;3.97;;;;;;;;;;5073866;28;20219;-81
2023/01/13 12:05:40;;;;;;;12.00;3.40;;;;;;;;;;5083799;28;20218;-82
2023/01/13 12:08:18;;;;;;;6.93;2.97;;;;;;;;;;5075709;28;20199;-82
2023/01/13 12:10:58;;;;;;;6.50;2.23;;;;;;;;;;5079409;28;20227;-82
2023/01/13 12:13:32;;;;;;;7.43;2.43;;;;;;;;;;5086726;28;20234;-83
2023/01/13 12:16:07;;;;;;;8.50;3.57;;;;;;;;;;5085384;28;20203;-82
2023/01/13 12:18:47;;;;;;;8.77;2.03;;;;;;;;;;5083072;28;20208;-81
2023/01/13 12:21:19;;;;;;;8.23;3.30;;;;;;;;;;5081584;28;20211;-83
2023/01/13 12:23:55;;;;;;;7.07;3.03;;;;;;;;;;5088666;28;20201;-83
2023/01/13 12:26:24;;;;;;;12.20;3.37;;;;;;;;;;5081105;28;20301;-83
2023/01/13 12:28:54;;;;;;;11.57;2.20;;;;;;;;;;5091578;28;20203;-83
2023/01/13 12:31:22;;;;;;;8.47;4.07;;;;;;;;;;5092876;28;20197;-83
2023/01/13 12:33:55;;;;;;;3.17;2.03;;;;;;;;;;5086218;28;20293;-83
2023/01/13 12:36:28;;;;;;;3.53;2.37;;;;;;;;;;5084663;28;20224;-83
2023/01/13 12:38:58;;;;;;;7.57;2.80;;;;;;;;;;5081017;28;20211;-83
2023/01/13 12:41:34;;;;;;;13.40;3.20;;;;;;;;;;5086377;28;20203;-82
2023/01/13 12:44:17;;;;;;;8.60;2.30;;;;;;;;;;5083370;28;20214;-82
2023/01/13 12:46:51;;;;;;;17.17;2.70;;;;;;;;;;5082945;28;20216;-82
2023/01/13 12:49:23;;;;;;;7.67;3.93;;;;;;;;;;5090899;28;20206;-82
2023/01/13 12:52:17;;;;;;;5.63;2.20;;;;;;;;;;5080658;28;20278;-82
2023/01/13 12:55:08;;;;;;;6.37;2.90;;;;;;;;;;5069005;28;20227;-83
2023/01/13 12:57:38;;;;;;;5.63;2.60;;;;;;;;;;5090238;28;20207;-83
2023/01/13 13:00:14;;;;;;;12.40;4.07;;;;;;;;;;5081756;28;20191;-82
2023/01/13 13:02:43;;;;;;;3.77;2.00;;;;;;;;;;5083959;28;20200;-82
2023/01/13 13:05:31;;;;;;;7.67;2.57;;;;;;;;;;5083054;28;20228;-82
2023/01/13 13:08:05;;;;;;;8.93;3.03;;;;;;;;;;5078272;28;20189;-82
2023/01/13 13:10:38;;;;;;;10.30;3.27;;;;;;;;;;5072852;28;20312;-82
2023/01/13 13:13:18;;;;;;;8.50;3.80;;;;;;;;;;5090995;28;20310;-82
2023/01/13 13:15:47;;;;;;;10.27;3.47;;;;;;;;;;5078054;28;20206;-82
2023/01/13 13:18:27;;;;;;;9.33;3.97;;;;;;;;;;5073004;28;20270;-83
2023/01/13 13:20:57;;;;;;;11.17;3.40;;;;;;;;;;5095492;28;20192;-82
2023/01/13 13:23:42;;;;;;;11.43;3.70;;;;;;;;;;5080927;28;20295;-83
2023/01/13 13:26:18;;;;;;;8.20;3.87;;;;;;;;;;5072568;28;20202;-85
2023/01/13 13:28:51;;;;;;;7.80;2.00;;;;;;;;;;5076944;28;20218;-84
2023/01/13 13:31:24;;;;;;;4.33;2.47;;;;;;;;;;5072259;28;20292;-83
2023/01/13 13:34:05;;;;;;;8.93;3.20;;;;;;;;;;5072892;28;20202;-82
2023/01/13 13:36:57;;;;;;;5.73;3.10;;;;;;;;;;5075166;28;20214;-82
2023/01/13 13:48:20;;;;;;;11.37;3.87;;;;;;;;;;5005710;28;20205;-84
2023/01/13 13:50:49;;;;;;;8.57;2.53;;;;;;;;;;5054356;28;20310;-82
2023/01/13 13:53:19;;;;;;;12.23;3.13;;;;;;;;;;5081192;28;20203;-84
2023/01/13 13:55:56;;;;;;;8.23;2.37;;;;;;;;;;5069980;28;20220;-83
2023/01/13 13:58:26;;;;;;;12.10;3.90;;;;;;;;;;5071739;28;20293;-83
2023/01/13 14:00:55;;;;;;;7.03;3.27;;;;;;;;;;5079791;28;20211;-85
2023/01/13 14:03:25;;;;;;;7.77;2.80;;;;;;;;;;5076785;28;20290;-82
2023/01/13 14:05:55;;;;;;;17.33;3.87;;;;;;;;;;5079431;28;20218;-83
2023/01/13 14:08:24;;;;;;;9.53;3.20;;;;;;;;;;5079248;28;20200;-82
2023/01/13 14:10:52;;;;;;;9.97;3.03;;;;;;;;;;5081916;28;20215;-84
2023/01/13 14:13:22;;;;;;;13.17;4.10;;;;;;;;;;5084904;28;20282;-82
2023/01/13 14:15:56;;;;;;;8.90;2.03;;;;;;;;;;5076949;28;20212;-84
2023/01/13 14:18:26;;;;;;;9.63;3.17;;;;;;;;;;5080383;28;20233;-84
2023/01/13 14:20:55;;;;;;;7.67;3.07;;;;;;;;;;5080421;28;20190;-82
2023/01/13 14:23:27;;;;;;;24.87;6.47;;;;;;;;;;5076920;28;20198;-82
2023/01/13 14:25:55;;;;;;;20.70;3.83;;;;;;;;;;5080404;28;20246;-82
2023/01/13 14:28:25;;;;;;;14.40;3.77;;;;;;;;;;5079478;28;20196;-83
2023/01/13 14:30:56;;;;;;;12.40;3.57;;;;;;;;;;5083789;28;20306;-84
2023/01/13 14:33:29;;;;;;;13.40;3.50;;;;;;;;;;5084665;28;20247;-83
2023/01/13 14:36:14;;;;;;;4.47;2.53;;;;;;;;;;5086354;28;20294;-83
2023/01/13 14:38:44;;;;;;;10.40;2.93;;;;;;;;;;5090233;28;20201;-84
2023/01/13 14:41:16;;;;;;;6.33;2.40;;;;;;;;;;5094637;28;20249;-83
2023/01/13 14:43:46;;;;;;;9.43;2.77;;;;;;;;;;5094725;28;20206;-83
2023/01/13 14:46:16;;;;;;;16.97;4.00;;;;;;;;;;5095028;28;20221;-83
2023/01/13 14:48:46;;;;;;;7.07;2.77;;;;;;;;;;5090259;28;20203;-83
2023/01/13 14:51:22;;;;;;;9.00;4.30;;;;;;;;;;5085375;28;20226;-85
2023/01/13 14:53:51;;;;;;;9.03;2.80;;;;;;;;;;5079101;28;20233;-83
2023/01/13 14:56:37;;;;;;;7.90;3.30;;;;;;;;;;5093794;28;20257;-83
2023/01/13 14:59:24;;;;;;;7.77;2.07;;;;;;;;;;5080368;28;20191;-83
2023/01/13 15:01:54;;;;;;;9.20;3.00;;;;;;;;;;5082743;28;20202;-83
2023/01/13 15:04:25;;;;;;;10.47;3.23;;;;;;;;;;5098418;28;20204;-83
2023/01/13 15:06:55;;;;;;;5.13;2.20;;;;;;;;;;5080358;28;20220;-83
2023/01/13 15:09:25;;;;;;;11.67;3.93;;;;;;;;;;5083015;28;20272;-84
2023/01/13 15:11:55;;;;;;;9.87;3.37;;;;;;;;;;5087019;28;20300;-84
2023/01/13 15:14:26;;;;;;;11.23;4.10;;;;;;;;;;5081199;28;20299;-83
2023/01/13 15:16:56;;;;;;;9.03;3.27;;;;;;;;;;5078376;28;20197;-84
2023/01/13 15:19:24;;;;;;;6.77;2.83;;;;;;;;;;5082198;28;20199;-83
2023/01/13 15:21:53;;;;;;;7.50;2.37;;;;;;;;;;5085516;28;20195;-83
2023/01/13 15:24:21;;;;;;;9.20;2.73;;;;;;;;;;5080515;28;20199;-83
2023/01/13 15:26:50;;;;;;;20.53;4.53;;;;;;;;;;5079310;28;20192;-84
2023/01/13 15:29:18;;;;;;;12.07;3.50;;;;;;;;;;5083591;28;20253;-86
2023/01/13 15:31:47;;;;;;;11.60;3.50;;;;;;;;;;5080311;28;20207;-88
2023/01/13 15:34:16;;;;;;;15.97;4.83;;;;;;;;;;5077004;28;20200;-85
2023/01/13 15:36:45;;;;;;;7.47;2.70;;;;;;;;;;5085502;28;20202;-86
2023/01/13 15:39:13;;;;;;;9.77;3.37;;;;;;;;;;5084414;28;20198;-85
2023/01/13 15:47:14;;;;;;;10.67;2.07;;;;;;;;;;5086213;28;20298;-85
2023/01/13 15:49:44;;;;;;;10.37;2.77;;;;;;;;;;5086124;28;20242;-85